sensor_id;sensor_type;location;lat;lon;timestamp;P1;durP1;ratioP1;P2;durP2;ratioP2
38226;SDS011;24026;49.446;8.576;2023-07-31T00:00:43;135.85;;;124.57;;
38226;SDS011;24026;49.446;8.576;2023-07-31T00:03:04;136.90;;;125.50;;
38226;SDS011;24026;49.446;8.576;2023-07-31T00:05:24;135.10;;;123.80;;
38226;SDS011;24026;49.446;8.576;2023-07-31T00:07:45;135.32;;;124.05;;
38226;SDS011;24026;49.446;8.576;2023-07-31T00:10:05;135.55;;;124.18;;
38226;SDS011;24026;49.446;8.576;2023-07-31T00:12:26;134.15;;;122.75;;
38226;SDS011;24026;49.446;8.576;2023-07-31T00:14:47;135.55;;;124.25;;
38226;SDS011;24026;49.446;8.576;2023-07-31T00:17:07;134.43;;;123.15;;
38226;SDS011;24026;49.446;8.576;2023-07-31T00:19:27;135.88;;;124.38;;
38226;SDS011;24026;49.446;8.576;2023-07-31T00:21:48;135.23;;;124.03;;
38226;SDS011;24026;49.446;8.576;2023-07-31T00:24:09;134.02;;;122.70;;
38226;SDS011;24026;49.446;8.576;2023-07-31T00:26:29;132.60;;;121.45;;
38226;SDS011;24026;49.446;8.576;2023-07-31T00:28:49;134.30;;;123.13;;
38226;SDS011;24026;49.446;8.576;2023-07-31T00:31:10;136.45;;;124.97;;
38226;SDS011;24026;49.446;8.576;2023-07-31T00:33:31;134.90;;;123.65;;
38226;SDS011;24026;49.446;8.576;2023-07-31T00:35:51;135.90;;;124.60;;
38226;SDS011;24026;49.446;8.576;2023-07-31T00:38:12;135.57;;;124.32;;
38226;SDS011;24026;49.446;8.576;2023-07-31T00:40:35;134.93;;;123.60;;
38226;SDS011;24026;49.446;8.576;2023-07-31T00:42:57;132.87;;;121.67;;
38226;SDS011;24026;49.446;8.576;2023-07-31T00:45:17;133.20;;;121.95;;
38226;SDS011;24026;49.446;8.576;2023-07-31T00:47:38;133.07;;;121.88;;
38226;SDS011;24026;49.446;8.576;2023-07-31T00:49:59;134.38;;;123.15;;
38226;SDS011;24026;49.446;8.576;2023-07-31T00:52:19;134.07;;;122.88;;
38226;SDS011;24026;49.446;8.576;2023-07-31T00:54:40;135.20;;;123.90;;
38226;SDS011;24026;49.446;8.576;2023-07-31T00:57:01;132.63;;;121.53;;
38226;SDS011;24026;49.446;8.576;2023-07-31T00:59:22;133.32;;;122.20;;
38226;SDS011;24026;49.446;8.576;2023-07-31T01:01:42;133.20;;;122.05;;
38226;SDS011;24026;49.446;8.576;2023-07-31T01:04:03;131.70;;;120.60;;
38226;SDS011;24026;49.446;8.576;2023-07-31T01:06:37;134.63;;;123.32;;
38226;SDS011;24026;49.446;8.576;2023-07-31T01:09:18;132.45;;;121.18;;
38226;SDS011;24026;49.446;8.576;2023-07-31T01:11:52;131.98;;;120.93;;
38226;SDS011;24026;49.446;8.576;2023-07-31T01:14:16;133.73;;;122.53;;
38226;SDS011;24026;49.446;8.576;2023-07-31T01:16:36;133.10;;;121.80;;
38226;SDS011;24026;49.446;8.576;2023-07-31T01:18:57;134.75;;;123.55;;
38226;SDS011;24026;49.446;8.576;2023-07-31T01:21:21;135.38;;;124.07;;
38226;SDS011;24026;49.446;8.576;2023-07-31T01:24:02;134.02;;;122.72;;
38226;SDS011;24026;49.446;8.576;2023-07-31T01:26:39;133.85;;;122.60;;
38226;SDS011;24026;49.446;8.576;2023-07-31T01:29:10;133.68;;;122.40;;
38226;SDS011;24026;49.446;8.576;2023-07-31T01:31:37;133.32;;;122.15;;
38226;SDS011;24026;49.446;8.576;2023-07-31T01:34:01;133.90;;;122.68;;
38226;SDS011;24026;49.446;8.576;2023-07-31T01:36:22;134.23;;;122.97;;
38226;SDS011;24026;49.446;8.576;2023-07-31T01:38:42;133.65;;;122.50;;
38226;SDS011;24026;49.446;8.576;2023-07-31T01:41:03;133.15;;;121.75;;
38226;SDS011;24026;49.446;8.576;2023-07-31T01:43:23;134.25;;;122.88;;
38226;SDS011;24026;49.446;8.576;2023-07-31T01:45:44;133.35;;;122.07;;
38226;SDS011;24026;49.446;8.576;2023-07-31T01:48:04;133.95;;;122.65;;
38226;SDS011;24026;49.446;8.576;2023-07-31T01:50:25;133.68;;;122.38;;
38226;SDS011;24026;49.446;8.576;2023-07-31T01:52:45;132.27;;;121.07;;
38226;SDS011;24026;49.446;8.576;2023-07-31T01:55:06;133.48;;;122.25;;
38226;SDS011;24026;49.446;8.576;2023-07-31T01:57:26;133.48;;;122.20;;
38226;SDS011;24026;49.446;8.576;2023-07-31T01:59:47;132.00;;;120.90;;
38226;SDS011;24026;49.446;8.576;2023-07-31T02:02:07;135.07;;;123.78;;
38226;SDS011;24026;49.446;8.576;2023-07-31T02:04:27;133.05;;;121.75;;
38226;SDS011;24026;49.446;8.576;2023-07-31T02:06:48;132.50;;;121.32;;
38226;SDS011;24026;49.446;8.576;2023-07-31T02:09:08;133.52;;;122.32;;
38226;SDS011;24026;49.446;8.576;2023-07-31T02:11:29;132.45;;;121.35;;
38226;SDS011;24026;49.446;8.576;2023-07-31T02:13:49;133.57;;;122.32;;
38226;SDS011;24026;49.446;8.576;2023-07-31T02:16:09;133.38;;;122.10;;
38226;SDS011;24026;49.446;8.576;2023-07-31T02:18:30;135.48;;;124.15;;
38226;SDS011;24026;49.446;8.576;2023-07-31T02:20:50;132.95;;;121.72;;
38226;SDS011;24026;49.446;8.576;2023-07-31T02:23:11;132.85;;;121.57;;
38226;SDS011;24026;49.446;8.576;2023-07-31T02:25:31;134.07;;;122.80;;
38226;SDS011;24026;49.446;8.576;2023-07-31T02:27:52;133.02;;;121.82;;
38226;SDS011;24026;49.446;8.576;2023-07-31T02:30:12;133.48;;;122.18;;
38226;SDS011;24026;49.446;8.576;2023-07-31T02:32:33;134.52;;;123.28;;
38226;SDS011;24026;49.446;8.576;2023-07-31T02:34:53;133.35;;;122.07;;
38226;SDS011;24026;49.446;8.576;2023-07-31T02:37:13;132.75;;;121.45;;
38226;SDS011;24026;49.446;8.576;2023-07-31T02:39:34;133.93;;;122.68;;
38226;SDS011;24026;49.446;8.576;2023-07-31T02:41:54;136.60;;;124.95;;
38226;SDS011;24026;49.446;8.576;2023-07-31T02:44:15;134.80;;;123.07;;
38226;SDS011;24026;49.446;8.576;2023-07-31T02:46:35;133.20;;;121.90;;
38226;SDS011;24026;49.446;8.576;2023-07-31T02:48:55;134.65;;;123.40;;
38226;SDS011;24026;49.446;8.576;2023-07-31T02:51:16;134.35;;;123.03;;
38226;SDS011;24026;49.446;8.576;2023-07-31T02:53:36;133.48;;;122.15;;
38226;SDS011;24026;49.446;8.576;2023-07-31T02:55:57;133.45;;;122.25;;
38226;SDS011;24026;49.446;8.576;2023-07-31T02:58:17;133.63;;;122.30;;
38226;SDS011;24026;49.446;8.576;2023-07-31T03:00:41;134.43;;;123.15;;
38226;SDS011;24026;49.446;8.576;2023-07-31T03:03:02;131.87;;;120.53;;
38226;SDS011;24026;49.446;8.576;2023-07-31T03:05:23;131.95;;;120.65;;
38226;SDS011;24026;49.446;8.576;2023-07-31T03:07:43;131.38;;;120.22;;
38226;SDS011;24026;49.446;8.576;2023-07-31T03:10:04;132.05;;;120.95;;
38226;SDS011;24026;49.446;8.576;2023-07-31T03:12:25;130.93;;;119.82;;
38226;SDS011;24026;49.446;8.576;2023-07-31T03:14:45;131.43;;;120.32;;
38226;SDS011;24026;49.446;8.576;2023-07-31T03:17:06;133.50;;;122.30;;
38226;SDS011;24026;49.446;8.576;2023-07-31T03:19:26;133.55;;;122.25;;
38226;SDS011;24026;49.446;8.576;2023-07-31T03:21:47;131.38;;;120.25;;
38226;SDS011;24026;49.446;8.576;2023-07-31T03:24:07;132.23;;;121.03;;
38226;SDS011;24026;49.446;8.576;2023-07-31T03:26:28;131.35;;;120.22;;
38226;SDS011;24026;49.446;8.576;2023-07-31T03:28:49;131.80;;;120.43;;
38226;SDS011;24026;49.446;8.576;2023-07-31T03:31:10;133.57;;;122.30;;
38226;SDS011;24026;49.446;8.576;2023-07-31T03:33:31;132.10;;;120.90;;
38226;SDS011;24026;49.446;8.576;2023-07-31T03:35:51;132.75;;;121.45;;
38226;SDS011;24026;49.446;8.576;2023-07-31T03:38:12;131.98;;;120.75;;
38226;SDS011;24026;49.446;8.576;2023-07-31T03:40:33;132.98;;;121.60;;
38226;SDS011;24026;49.446;8.576;2023-07-31T03:42:53;131.63;;;120.45;;
38226;SDS011;24026;49.446;8.576;2023-07-31T03:45:13;132.30;;;121.05;;
38226;SDS011;24026;49.446;8.576;2023-07-31T03:47:34;134.73;;;123.35;;
38226;SDS011;24026;49.446;8.576;2023-07-31T03:49:54;132.90;;;121.63;;
38226;SDS011;24026;49.446;8.576;2023-07-31T03:52:15;134.02;;;122.65;;
38226;SDS011;24026;49.446;8.576;2023-07-31T03:54:35;131.18;;;120.10;;
38226;SDS011;24026;49.446;8.576;2023-07-31T03:56:56;132.15;;;121.05;;
38226;SDS011;24026;49.446;8.576;2023-07-31T03:59:16;135.05;;;123.65;;
38226;SDS011;24026;49.446;8.576;2023-07-31T04:01:36;132.65;;;121.50;;
38226;SDS011;24026;49.446;8.576;2023-07-31T04:03:57;132.73;;;121.53;;
38226;SDS011;24026;49.446;8.576;2023-07-31T04:06:17;134.57;;;123.20;;
38226;SDS011;24026;49.446;8.576;2023-07-31T04:08:38;132.48;;;121.28;;
38226;SDS011;24026;49.446;8.576;2023-07-31T04:10:58;132.25;;;121.07;;
38226;SDS011;24026;49.446;8.576;2023-07-31T04:13:18;133.10;;;121.90;;
38226;SDS011;24026;49.446;8.576;2023-07-31T04:15:39;132.10;;;120.93;;
38226;SDS011;24026;49.446;8.576;2023-07-31T04:17:59;132.73;;;121.50;;
38226;SDS011;24026;49.446;8.576;2023-07-31T04:20:20;133.05;;;121.90;;
38226;SDS011;24026;49.446;8.576;2023-07-31T04:22:40;133.95;;;122.55;;
38226;SDS011;24026;49.446;8.576;2023-07-31T04:25:01;132.38;;;121.18;;
38226;SDS011;24026;49.446;8.576;2023-07-31T04:27:21;133.27;;;121.95;;
38226;SDS011;24026;49.446;8.576;2023-07-31T04:29:42;131.98;;;120.88;;
38226;SDS011;24026;49.446;8.576;2023-07-31T04:32:04;132.73;;;121.32;;
38226;SDS011;24026;49.446;8.576;2023-07-31T04:34:24;132.98;;;121.57;;
38226;SDS011;24026;49.446;8.576;2023-07-31T04:36:45;133.38;;;121.78;;
38226;SDS011;24026;49.446;8.576;2023-07-31T04:39:05;133.77;;;122.45;;
38226;SDS011;24026;49.446;8.576;2023-07-31T04:41:26;133.55;;;122.25;;
38226;SDS011;24026;49.446;8.576;2023-07-31T04:43:46;131.65;;;120.45;;
38226;SDS011;24026;49.446;8.576;2023-07-31T04:46:06;132.32;;;121.03;;
38226;SDS011;24026;49.446;8.576;2023-07-31T04:48:27;134.65;;;123.22;;
38226;SDS011;24026;49.446;8.576;2023-07-31T04:50:47;134.65;;;123.18;;
38226;SDS011;24026;49.446;8.576;2023-07-31T04:53:07;132.85;;;121.65;;
38226;SDS011;24026;49.446;8.576;2023-07-31T04:55:29;133.68;;;122.30;;
38226;SDS011;24026;49.446;8.576;2023-07-31T04:57:49;132.93;;;121.55;;
38226;SDS011;24026;49.446;8.576;2023-07-31T05:00:10;133.52;;;122.22;;
38226;SDS011;24026;49.446;8.576;2023-07-31T05:02:31;134.50;;;123.22;;
38226;SDS011;24026;49.446;8.576;2023-07-31T05:04:51;133.05;;;121.82;;
38226;SDS011;24026;49.446;8.576;2023-07-31T05:07:12;133.60;;;122.30;;
38226;SDS011;24026;49.446;8.576;2023-07-31T05:09:32;135.13;;;123.70;;
38226;SDS011;24026;49.446;8.576;2023-07-31T05:11:53;136.48;;;124.97;;
38226;SDS011;24026;49.446;8.576;2023-07-31T05:14:13;135.85;;;124.05;;
38226;SDS011;24026;49.446;8.576;2023-07-31T05:16:34;141.57;;;129.50;;
38226;SDS011;24026;49.446;8.576;2023-07-31T05:18:54;140.52;;;128.90;;
38226;SDS011;24026;49.446;8.576;2023-07-31T05:21:15;139.75;;;127.97;;
38226;SDS011;24026;49.446;8.576;2023-07-31T05:23:35;134.55;;;123.03;;
38226;SDS011;24026;49.446;8.576;2023-07-31T05:26:02;135.13;;;123.47;;
38226;SDS011;24026;49.446;8.576;2023-07-31T05:28:23;134.50;;;123.07;;
38226;SDS011;24026;49.446;8.576;2023-07-31T05:30:44;135.65;;;124.10;;
38226;SDS011;24026;49.446;8.576;2023-07-31T05:33:04;135.85;;;124.25;;
38226;SDS011;24026;49.446;8.576;2023-07-31T05:35:25;135.52;;;123.90;;
38226;SDS011;24026;49.446;8.576;2023-07-31T05:37:45;137.82;;;126.15;;
38226;SDS011;24026;49.446;8.576;2023-07-31T05:40:05;136.00;;;124.20;;
38226;SDS011;24026;49.446;8.576;2023-07-31T05:42:26;137.45;;;125.32;;
38226;SDS011;24026;49.446;8.576;2023-07-31T05:44:47;137.07;;;125.07;;
38226;SDS011;24026;49.446;8.576;2023-07-31T05:47:07;134.82;;;123.13;;
38226;SDS011;24026;49.446;8.576;2023-07-31T05:49:28;136.15;;;124.45;;
38226;SDS011;24026;49.446;8.576;2023-07-31T05:51:48;136.27;;;124.47;;
38226;SDS011;24026;49.446;8.576;2023-07-31T05:54:08;134.73;;;122.97;;
38226;SDS011;24026;49.446;8.576;2023-07-31T05:56:29;135.43;;;123.72;;
38226;SDS011;24026;49.446;8.576;2023-07-31T05:58:49;133.35;;;121.70;;
38226;SDS011;24026;49.446;8.576;2023-07-31T06:01:10;135.57;;;123.38;;
38226;SDS011;24026;49.446;8.576;2023-07-31T06:03:30;135.88;;;123.47;;
38226;SDS011;24026;49.446;8.576;2023-07-31T06:05:51;136.60;;;124.53;;
38226;SDS011;24026;49.446;8.576;2023-07-31T06:08:11;136.55;;;124.72;;
38226;SDS011;24026;49.446;8.576;2023-07-31T06:10:32;137.05;;;125.13;;
38226;SDS011;24026;49.446;8.576;2023-07-31T06:12:52;136.85;;;125.03;;
38226;SDS011;24026;49.446;8.576;2023-07-31T06:15:14;134.13;;;122.60;;
38226;SDS011;24026;49.446;8.576;2023-07-31T06:17:36;135.05;;;123.45;;
38226;SDS011;24026;49.446;8.576;2023-07-31T06:20:03;133.57;;;121.63;;
38226;SDS011;24026;49.446;8.576;2023-07-31T06:22:25;131.13;;;119.43;;
38226;SDS011;24026;49.446;8.576;2023-07-31T06:24:46;131.68;;;120.07;;
38226;SDS011;24026;49.446;8.576;2023-07-31T06:27:06;131.65;;;120.25;;
38226;SDS011;24026;49.446;8.576;2023-07-31T06:29:27;133.68;;;122.07;;
38226;SDS011;24026;49.446;8.576;2023-07-31T06:31:48;133.40;;;121.60;;
38226;SDS011;24026;49.446;8.576;2023-07-31T06:34:10;135.52;;;123.30;;
38226;SDS011;24026;49.446;8.576;2023-07-31T06:36:30;134.18;;;121.97;;
38226;SDS011;24026;49.446;8.576;2023-07-31T06:38:52;135.02;;;122.32;;
38226;SDS011;24026;49.446;8.576;2023-07-31T06:41:13;136.23;;;123.75;;
38226;SDS011;24026;49.446;8.576;2023-07-31T06:43:34;134.73;;;121.65;;
38226;SDS011;24026;49.446;8.576;2023-07-31T06:45:54;134.45;;;122.40;;
38226;SDS011;24026;49.446;8.576;2023-07-31T06:48:15;134.88;;;122.50;;
38226;SDS011;24026;49.446;8.576;2023-07-31T06:50:35;134.32;;;122.10;;
38226;SDS011;24026;49.446;8.576;2023-07-31T06:52:57;138.20;;;125.22;;
38226;SDS011;24026;49.446;8.576;2023-07-31T06:55:18;133.90;;;121.45;;
38226;SDS011;24026;49.446;8.576;2023-07-31T06:57:41;137.15;;;124.32;;
38226;SDS011;24026;49.446;8.576;2023-07-31T07:00:02;135.57;;;123.07;;
38226;SDS011;24026;49.446;8.576;2023-07-31T07:02:25;136.23;;;122.80;;
38226;SDS011;24026;49.446;8.576;2023-07-31T07:04:46;134.52;;;122.13;;
38226;SDS011;24026;49.446;8.576;2023-07-31T07:07:06;133.55;;;121.13;;
38226;SDS011;24026;49.446;8.576;2023-07-31T07:09:27;134.40;;;122.30;;
38226;SDS011;24026;49.446;8.576;2023-07-31T07:11:48;132.82;;;120.60;;
38226;SDS011;24026;49.446;8.576;2023-07-31T07:14:09;135.60;;;123.13;;
38226;SDS011;24026;49.446;8.576;2023-07-31T07:16:31;133.98;;;122.05;;
38226;SDS011;24026;49.446;8.576;2023-07-31T07:18:52;135.30;;;123.30;;
38226;SDS011;24026;49.446;8.576;2023-07-31T07:21:13;133.55;;;121.80;;
38226;SDS011;24026;49.446;8.576;2023-07-31T07:23:38;132.70;;;120.75;;
38226;SDS011;24026;49.446;8.576;2023-07-31T07:26:00;133.43;;;121.22;;
38226;SDS011;24026;49.446;8.576;2023-07-31T07:28:20;133.30;;;121.45;;
38226;SDS011;24026;49.446;8.576;2023-07-31T07:30:41;134.55;;;122.55;;
38226;SDS011;24026;49.446;8.576;2023-07-31T07:33:02;133.52;;;121.72;;
38226;SDS011;24026;49.446;8.576;2023-07-31T07:35:22;133.85;;;122.10;;
38226;SDS011;24026;49.446;8.576;2023-07-31T07:37:43;139.45;;;127.35;;
38226;SDS011;24026;49.446;8.576;2023-07-31T07:40:03;139.02;;;126.88;;
38226;SDS011;24026;49.446;8.576;2023-07-31T07:42:24;138.73;;;126.60;;
38226;SDS011;24026;49.446;8.576;2023-07-31T07:44:44;139.10;;;127.28;;
38226;SDS011;24026;49.446;8.576;2023-07-31T07:47:05;139.90;;;127.72;;
38226;SDS011;24026;49.446;8.576;2023-07-31T07:49:26;139.88;;;127.30;;
38226;SDS011;24026;49.446;8.576;2023-07-31T07:51:47;141.10;;;128.43;;
38226;SDS011;24026;49.446;8.576;2023-07-31T07:54:08;141.05;;;127.97;;
38226;SDS011;24026;49.446;8.576;2023-07-31T07:56:28;141.70;;;128.38;;
38226;SDS011;24026;49.446;8.576;2023-07-31T07:58:49;139.63;;;125.85;;
38226;SDS011;24026;49.446;8.576;2023-07-31T08:01:10;140.35;;;127.25;;
38226;SDS011;24026;49.446;8.576;2023-07-31T08:03:30;140.48;;;127.78;;
38226;SDS011;24026;49.446;8.576;2023-07-31T08:05:51;140.55;;;127.32;;
38226;SDS011;24026;49.446;8.576;2023-07-31T08:08:14;141.23;;;128.18;;
38226;SDS011;24026;49.446;8.576;2023-07-31T08:10:36;136.95;;;124.22;;
38226;SDS011;24026;49.446;8.576;2023-07-31T08:12:56;141.65;;;127.93;;
38226;SDS011;24026;49.446;8.576;2023-07-31T08:15:17;140.20;;;127.07;;
38226;SDS011;24026;49.446;8.576;2023-07-31T08:17:37;139.75;;;126.55;;
38226;SDS011;24026;49.446;8.576;2023-07-31T08:19:57;139.70;;;126.55;;
38226;SDS011;24026;49.446;8.576;2023-07-31T08:22:18;141.80;;;128.13;;
38226;SDS011;24026;49.446;8.576;2023-07-31T08:24:39;140.75;;;127.95;;
38226;SDS011;24026;49.446;8.576;2023-07-31T08:26:59;139.32;;;126.72;;
38226;SDS011;24026;49.446;8.576;2023-07-31T08:29:19;139.40;;;127.05;;
38226;SDS011;24026;49.446;8.576;2023-07-31T08:31:40;140.93;;;127.70;;
38226;SDS011;24026;49.446;8.576;2023-07-31T08:34:00;140.43;;;127.53;;
38226;SDS011;24026;49.446;8.576;2023-07-31T08:36:21;140.15;;;127.32;;
38226;SDS011;24026;49.446;8.576;2023-07-31T08:38:41;139.48;;;127.00;;
38226;SDS011;24026;49.446;8.576;2023-07-31T08:41:05;142.73;;;129.70;;
38226;SDS011;24026;49.446;8.576;2023-07-31T08:43:26;140.45;;;127.60;;
38226;SDS011;24026;49.446;8.576;2023-07-31T08:45:47;143.70;;;130.10;;
38226;SDS011;24026;49.446;8.576;2023-07-31T08:48:08;151.45;;;136.15;;
38226;SDS011;24026;49.446;8.576;2023-07-31T08:50:30;158.90;;;141.93;;
38226;SDS011;24026;49.446;8.576;2023-07-31T08:52:51;160.77;;;142.63;;
38226;SDS011;24026;49.446;8.576;2023-07-31T08:55:12;159.95;;;142.75;;
38226;SDS011;24026;49.446;8.576;2023-07-31T08:57:34;151.43;;;136.73;;
38226;SDS011;24026;49.446;8.576;2023-07-31T08:59:55;151.02;;;135.95;;
38226;SDS011;24026;49.446;8.576;2023-07-31T09:02:17;148.93;;;134.82;;
38226;SDS011;24026;49.446;8.576;2023-07-31T09:04:39;150.40;;;136.82;;
38226;SDS011;24026;49.446;8.576;2023-07-31T09:07:01;160.25;;;145.07;;
38226;SDS011;24026;49.446;8.576;2023-07-31T09:09:24;154.25;;;139.82;;
38226;SDS011;24026;49.446;8.576;2023-07-31T09:11:44;154.55;;;139.88;;
38226;SDS011;24026;49.446;8.576;2023-07-31T09:14:05;154.20;;;139.55;;
38226;SDS011;24026;49.446;8.576;2023-07-31T09:16:29;153.38;;;138.30;;
38226;SDS011;24026;49.446;8.576;2023-07-31T09:18:53;153.25;;;138.57;;
38226;SDS011;24026;49.446;8.576;2023-07-31T09:21:16;152.38;;;138.23;;
38226;SDS011;24026;49.446;8.576;2023-07-31T09:23:40;187.93;;;170.50;;
38226;SDS011;24026;49.446;8.576;2023-07-31T09:26:05;153.40;;;139.10;;
38226;SDS011;24026;49.446;8.576;2023-07-31T09:28:30;153.25;;;139.40;;
38226;SDS011;24026;49.446;8.576;2023-07-31T09:33:11;152.55;;;138.70;;
38226;SDS011;24026;49.446;8.576;2023-07-31T09:35:33;153.40;;;139.38;;
38226;SDS011;24026;49.446;8.576;2023-07-31T09:37:58;158.27;;;143.25;;
38226;SDS011;24026;49.446;8.576;2023-07-31T09:40:27;150.80;;;137.23;;
38226;SDS011;24026;49.446;8.576;2023-07-31T09:45:12;148.37;;;133.87;;
38226;SDS011;24026;49.446;8.576;2023-07-31T09:47:36;159.63;;;144.57;;
38226;SDS011;24026;49.446;8.576;2023-07-31T09:49:56;162.02;;;146.68;;
38226;SDS011;24026;49.446;8.576;2023-07-31T09:52:16;169.25;;;152.65;;
38226;SDS011;24026;49.446;8.576;2023-07-31T09:54:38;174.93;;;158.05;;
38226;SDS011;24026;49.446;8.576;2023-07-31T09:56:59;179.45;;;161.93;;
38226;SDS011;24026;49.446;8.576;2023-07-31T09:59:20;164.27;;;149.25;;
38226;SDS011;24026;49.446;8.576;2023-07-31T10:01:43;160.90;;;145.93;;
38226;SDS011;24026;49.446;8.576;2023-07-31T10:04:06;161.57;;;146.25;;
38226;SDS011;24026;49.446;8.576;2023-07-31T10:06:28;156.07;;;142.02;;
38226;SDS011;24026;49.446;8.576;2023-07-31T10:08:50;153.20;;;139.52;;
38226;SDS011;24026;49.446;8.576;2023-07-31T10:11:13;154.63;;;140.52;;
38226;SDS011;24026;49.446;8.576;2023-07-31T10:13:34;155.27;;;141.50;;
38226;SDS011;24026;49.446;8.576;2023-07-31T10:15:54;158.80;;;144.27;;
38226;SDS011;24026;49.446;8.576;2023-07-31T10:18:19;155.45;;;141.55;;
38226;SDS011;24026;49.446;8.576;2023-07-31T10:20:40;157.27;;;142.95;;
38226;SDS011;24026;49.446;8.576;2023-07-31T10:23:01;156.23;;;142.73;;
38226;SDS011;24026;49.446;8.576;2023-07-31T10:25:22;152.73;;;138.70;;
38226;SDS011;24026;49.446;8.576;2023-07-31T10:27:45;152.60;;;139.02;;
38226;SDS011;24026;49.446;8.576;2023-07-31T10:30:17;158.15;;;143.90;;
38226;SDS011;24026;49.446;8.576;2023-07-31T10:32:47;164.63;;;150.32;;
38226;SDS011;24026;49.446;8.576;2023-07-31T10:35:10;163.52;;;148.90;;
38226;SDS011;24026;49.446;8.576;2023-07-31T10:37:41;159.88;;;146.02;;
38226;SDS011;24026;49.446;8.576;2023-07-31T10:40:06;163.15;;;148.77;;
38226;SDS011;24026;49.446;8.576;2023-07-31T10:42:33;158.23;;;144.77;;
38226;SDS011;24026;49.446;8.576;2023-07-31T10:44:58;156.60;;;143.20;;
38226;SDS011;24026;49.446;8.576;2023-07-31T10:47:22;154.32;;;140.93;;
38226;SDS011;24026;49.446;8.576;2023-07-31T10:49:47;153.20;;;140.18;;
38226;SDS011;24026;49.446;8.576;2023-07-31T10:52:10;155.40;;;141.87;;
38226;SDS011;24026;49.446;8.576;2023-07-31T10:54:32;155.07;;;141.93;;
38226;SDS011;24026;49.446;8.576;2023-07-31T10:56:53;154.43;;;141.35;;
38226;SDS011;24026;49.446;8.576;2023-07-31T10:59:14;150.50;;;137.85;;
38226;SDS011;24026;49.446;8.576;2023-07-31T11:01:53;152.13;;;139.13;;
38226;SDS011;24026;49.446;8.576;2023-07-31T11:04:21;149.13;;;136.57;;
38226;SDS011;24026;49.446;8.576;2023-07-31T11:06:55;149.15;;;136.35;;
38226;SDS011;24026;49.446;8.576;2023-07-31T11:09:18;149.63;;;136.60;;
38226;SDS011;24026;49.446;8.576;2023-07-31T11:11:38;147.38;;;134.52;;
38226;SDS011;24026;49.446;8.576;2023-07-31T11:13:59;146.75;;;134.05;;
38226;SDS011;24026;49.446;8.576;2023-07-31T11:16:20;146.02;;;133.60;;
38226;SDS011;24026;49.446;8.576;2023-07-31T11:18:43;145.38;;;132.85;;
38226;SDS011;24026;49.446;8.576;2023-07-31T11:21:06;144.05;;;131.65;;
38226;SDS011;24026;49.446;8.576;2023-07-31T11:23:27;142.05;;;129.48;;
38226;SDS011;24026;49.446;8.576;2023-07-31T11:25:47;141.23;;;128.82;;
38226;SDS011;24026;49.446;8.576;2023-07-31T11:28:12;139.57;;;127.25;;
38226;SDS011;24026;49.446;8.576;2023-07-31T11:30:34;139.85;;;127.72;;
38226;SDS011;24026;49.446;8.576;2023-07-31T11:32:55;138.70;;;127.03;;
38226;SDS011;24026;49.446;8.576;2023-07-31T11:35:15;139.27;;;127.38;;
38226;SDS011;24026;49.446;8.576;2023-07-31T11:37:42;138.20;;;126.68;;
38226;SDS011;24026;49.446;8.576;2023-07-31T11:40:04;138.75;;;126.95;;
38226;SDS011;24026;49.446;8.576;2023-07-31T11:42:25;140.60;;;128.93;;
38226;SDS011;24026;49.446;8.576;2023-07-31T11:44:46;143.27;;;131.18;;
38226;SDS011;24026;49.446;8.576;2023-07-31T11:47:08;142.88;;;130.93;;
38226;SDS011;24026;49.446;8.576;2023-07-31T11:49:29;145.77;;;133.57;;
38226;SDS011;24026;49.446;8.576;2023-07-31T11:51:49;144.35;;;132.40;;
38226;SDS011;24026;49.446;8.576;2023-07-31T11:54:10;142.57;;;130.48;;
38226;SDS011;24026;49.446;8.576;2023-07-31T11:56:32;143.32;;;131.48;;
38226;SDS011;24026;49.446;8.576;2023-07-31T11:58:55;142.15;;;130.27;;
38226;SDS011;24026;49.446;8.576;2023-07-31T12:01:18;144.43;;;132.13;;
38226;SDS011;24026;49.446;8.576;2023-07-31T12:03:40;145.10;;;133.00;;
38226;SDS011;24026;49.446;8.576;2023-07-31T12:06:02;145.25;;;133.25;;
38226;SDS011;24026;49.446;8.576;2023-07-31T12:08:24;142.95;;;130.90;;
38226;SDS011;24026;49.446;8.576;2023-07-31T12:10:45;142.18;;;130.35;;
38226;SDS011;24026;49.446;8.576;2023-07-31T12:13:08;143.77;;;131.48;;
38226;SDS011;24026;49.446;8.576;2023-07-31T12:18:04;140.90;;;129.25;;
38226;SDS011;24026;49.446;8.576;2023-07-31T12:20:34;141.35;;;129.55;;
38226;SDS011;24026;49.446;8.576;2023-07-31T12:22:56;142.15;;;130.40;;
38226;SDS011;24026;49.446;8.576;2023-07-31T12:25:17;140.38;;;128.70;;
38226;SDS011;24026;49.446;8.576;2023-07-31T12:27:37;141.48;;;129.85;;
38226;SDS011;24026;49.446;8.576;2023-07-31T12:29:58;140.32;;;128.82;;
38226;SDS011;24026;49.446;8.576;2023-07-31T12:32:21;141.77;;;129.98;;
38226;SDS011;24026;49.446;8.576;2023-07-31T12:34:53;143.45;;;131.38;;
38226;SDS011;24026;49.446;8.576;2023-07-31T12:37:14;142.70;;;130.52;;
38226;SDS011;24026;49.446;8.576;2023-07-31T12:39:34;141.90;;;129.77;;
38226;SDS011;24026;49.446;8.576;2023-07-31T12:41:55;141.07;;;129.27;;
38226;SDS011;24026;49.446;8.576;2023-07-31T12:44:16;142.95;;;131.02;;
38226;SDS011;24026;49.446;8.576;2023-07-31T12:46:37;140.35;;;128.73;;
38226;SDS011;24026;49.446;8.576;2023-07-31T12:48:57;139.05;;;127.22;;
38226;SDS011;24026;49.446;8.576;2023-07-31T12:51:18;138.77;;;127.07;;
38226;SDS011;24026;49.446;8.576;2023-07-31T12:53:39;136.38;;;124.78;;
38226;SDS011;24026;49.446;8.576;2023-07-31T12:56:02;138.75;;;126.95;;
38226;SDS011;24026;49.446;8.576;2023-07-31T12:58:22;137.55;;;125.68;;
38226;SDS011;24026;49.446;8.576;2023-07-31T13:00:43;138.48;;;126.05;;
38226;SDS011;24026;49.446;8.576;2023-07-31T13:03:04;138.45;;;126.35;;
38226;SDS011;24026;49.446;8.576;2023-07-31T13:05:25;136.85;;;124.68;;
38226;SDS011;24026;49.446;8.576;2023-07-31T13:07:49;139.27;;;126.77;;
38226;SDS011;24026;49.446;8.576;2023-07-31T13:10:09;137.10;;;125.30;;
38226;SDS011;24026;49.446;8.576;2023-07-31T13:12:30;141.77;;;129.73;;
38226;SDS011;24026;49.446;8.576;2023-07-31T13:14:51;143.23;;;130.90;;
38226;SDS011;24026;49.446;8.576;2023-07-31T13:17:11;142.38;;;129.70;;
38226;SDS011;24026;49.446;8.576;2023-07-31T13:19:32;141.82;;;129.93;;
38226;SDS011;24026;49.446;8.576;2023-07-31T13:21:59;141.57;;;129.40;;
38226;SDS011;24026;49.446;8.576;2023-07-31T13:24:19;143.02;;;131.18;;
38226;SDS011;24026;49.446;8.576;2023-07-31T13:26:40;142.70;;;130.80;;
38226;SDS011;24026;49.446;8.576;2023-07-31T13:29:01;142.45;;;130.60;;
38226;SDS011;24026;49.446;8.576;2023-07-31T13:31:21;142.30;;;130.60;;